Terminal Aerodrome Forecast
Issued by NWS

Home | Current Version | Previous Version | Text Only | Print | Product List | Glossary On
Versions: 1 2 3 4 5 6 7 8 9 10 11 12 13 14 15 16 17 18 19
000
FTUS45 KBOU 141725
TAFAPA
TAF
KAPA 141725Z 1418/1518 34007KT P6SM FEW080 FEW200
     FM141900 01008KT P6SM FEW120 SCT200
     FM142200 07007KT P6SM SCT200
     FM150100 15008KT P6SM SCT200
     FM150700 18008KT P6SM SCT200
     FM151400 19007KT P6SM FEW140 SCT200=

USA.gov is the U.S. government's official web portal to all federal, state and local government web resources and services.